createdAt,value
2023-03-27T00:00:01.718Z,3.00
2023-03-27T00:02:30.240Z,4.00
2023-03-27T00:04:58.711Z,5.00
2023-03-27T00:07:27.154Z,1.50
2023-03-27T00:09:57.686Z,3.25
2023-03-27T00:12:25.959Z,3.00
2023-03-27T00:14:54.252Z,5.00
2023-03-27T00:17:22.615Z,2.00
2023-03-27T00:19:51.002Z,4.00
2023-03-27T00:22:19.476Z,5.00
2023-03-27T00:24:47.751Z,4.00
2023-03-27T00:27:16.033Z,3.25
2023-03-27T00:29:46.565Z,2.50
2023-03-27T00:32:14.840Z,0.00
2023-03-27T00:34:43.317Z,3.00
2023-03-27T00:37:12.014Z,3.00
2023-03-27T00:39:41.102Z,3.33
2023-03-27T00:42:14.498Z,4.00
2023-03-27T00:44:42.777Z,2.50
2023-03-27T00:47:13.100Z,4.00
2023-03-27T00:49:41.487Z,3.00
2023-03-27T00:52:10.166Z,2.67
2023-03-27T00:54:40.462Z,4.00
2023-03-27T00:57:11.942Z,2.00
2023-03-27T00:59:42.482Z,3.00
2023-03-27T01:02:11.579Z,1.00
2023-03-27T01:04:40.864Z,2.50
2023-03-27T01:07:11.362Z,4.00
2023-03-27T01:09:39.587Z,2.00
2023-03-27T01:12:23.218Z,2.00
2023-03-27T01:15:16.671Z,2.00
2023-03-27T01:18:03.208Z,3.00
2023-03-27T01:20:48.703Z,3.67
2023-03-27T01:23:36.312Z,3.50
2023-03-27T01:26:37.847Z,2.50
2023-03-27T01:29:27.727Z,2.00
2023-03-27T01:32:02.312Z,4.00
2023-03-27T01:34:33.395Z,3.00
2023-03-27T01:37:07.714Z,4.00
2023-03-27T01:39:50.846Z,3.00
2023-03-27T01:42:41.346Z,4.00
2023-03-27T01:45:37.320Z,4.00
2023-03-27T01:48:19.366Z,2.50
2023-03-27T01:50:55.184Z,2.00
2023-03-27T01:53:28.845Z,3.00
2023-03-27T01:56:01.375Z,2.00
2023-03-27T01:58:37.618Z,3.00
2023-03-27T02:01:07.196Z,2.00
2023-03-27T02:03:48.179Z,2.00
2023-03-27T02:06:21.456Z,2.00
2023-03-27T02:08:55.628Z,2.00
2023-03-27T02:11:27.312Z,3.00
2023-03-27T02:14:02.073Z,3.00
2023-03-27T02:16:35.819Z,2.00
2023-03-27T02:19:12.728Z,2.50
2023-03-27T02:21:41.213Z,2.00
2023-03-27T02:24:09.488Z,2.00
2023-03-27T02:26:38.375Z,3.00
2023-03-27T02:29:22.115Z,2.00
2023-03-27T02:32:15.888Z,2.00
2023-03-27T02:34:59.013Z,3.00
2023-03-27T02:37:42.860Z,3.00
2023-03-27T02:40:28.853Z,2.33
2023-03-27T02:43:16.698Z,3.00
2023-03-27T02:46:04.823Z,3.00
2023-03-27T02:48:35.689Z,3.00
2023-03-27T02:51:09.176Z,3.00
2023-03-27T02:53:49.606Z,3.00
2023-03-27T02:56:20.673Z,2.67
2023-03-27T02:59:35.851Z,2.00
2023-03-27T03:02:06.755Z,4.00
2023-03-27T03:04:46.460Z,3.00
2023-03-27T03:07:16.383Z,2.50
2023-03-27T03:09:45.758Z,4.00
2023-03-27T03:12:13.929Z,2.67
2023-03-27T03:14:46.405Z,2.00
2023-03-27T03:17:16.449Z,2.50
2023-03-27T03:19:44.696Z,4.00
2023-03-27T03:22:13.483Z,3.67
2023-03-27T03:24:42.531Z,2.00
2023-03-27T03:27:12.865Z,3.00
2023-03-27T03:29:41.080Z,1.00
2023-03-27T03:32:09.472Z,3.00
2023-03-27T03:34:37.840Z,4.00
2023-03-27T03:37:10.866Z,3.00
2023-03-27T03:39:39.318Z,2.75
2023-03-27T03:42:07.790Z,2.33
2023-03-27T03:44:37.429Z,3.00
2023-03-27T03:47:05.780Z,3.00
2023-03-27T03:49:34.465Z,3.00
2023-03-27T03:52:04.431Z,2.00
2023-03-27T03:54:33.478Z,3.00
2023-03-27T03:57:03.594Z,3.50
2023-03-27T03:59:32.385Z,3.50
2023-03-27T04:02:00.910Z,2.00
2023-03-27T04:04:30.266Z,4.00
2023-03-27T04:06:58.849Z,1.00
2023-03-27T04:09:27.844Z,3.00
2023-03-27T04:11:56.223Z,3.00
2023-03-27T04:14:24.603Z,4.00
2023-03-27T04:16:52.877Z,2.50
2023-03-27T04:19:22.687Z,2.00
2023-03-27T04:21:52.608Z,3.33
2023-03-27T04:24:20.881Z,2.50
2023-03-27T04:26:49.273Z,2.00
2023-03-27T04:29:17.643Z,2.67
2023-03-27T04:31:46.926Z,2.00
2023-03-27T04:34:15.329Z,1.00
2023-03-27T04:36:43.639Z,2.00
2023-03-27T04:39:12.086Z,1.00
2023-03-27T04:41:40.369Z,2.00
2023-03-27T04:44:09.464Z,2.00
2023-03-27T04:46:38.174Z,2.00
2023-03-27T04:49:06.567Z,2.00
2023-03-27T04:51:34.928Z,2.33
2023-03-27T04:54:05.319Z,1.25
2023-03-27T04:56:35.213Z,3.00
2023-03-27T04:59:04.858Z,1.00
2023-03-27T05:01:34.295Z,2.33
2023-03-27T05:04:02.704Z,1.67
2023-03-27T05:06:33.281Z,2.00
2023-03-27T05:09:01.759Z,2.00
2023-03-27T05:11:30.135Z,2.00
2023-03-27T05:13:58.315Z,2.00
2023-03-27T05:16:26.946Z,1.00
2023-03-27T05:18:55.168Z,3.00
2023-03-27T05:21:23.464Z,2.25
2023-03-27T05:23:52.035Z,2.00
2023-03-27T05:26:20.200Z,1.33
2023-03-27T05:28:48.577Z,2.50
2023-03-27T05:31:17.018Z,2.75
2023-03-27T05:33:45.542Z,1.00
2023-03-27T05:36:15.558Z,3.00
2023-03-27T05:38:44.656Z,2.00
2023-03-27T05:41:13.037Z,2.00
2023-03-27T05:43:43.128Z,2.00
2023-03-27T05:46:11.855Z,2.00
2023-03-27T05:48:40.226Z,2.00
2023-03-27T05:51:09.673Z,4.00
2023-03-27T05:53:40.882Z,1.67
2023-03-27T05:56:09.990Z,2.33
2023-03-27T05:58:39.068Z,1.00
2023-03-27T06:01:08.164Z,2.33
2023-03-27T06:03:38.648Z,4.50
2023-03-27T06:06:09.227Z,2.00
2023-03-27T06:08:37.819Z,2.33
2023-03-27T06:11:13.049Z,2.33
2023-03-27T06:13:42.972Z,4.00
2023-03-27T06:16:11.403Z,4.33
2023-03-27T06:18:39.827Z,4.00
2023-03-27T06:21:08.306Z,5.00
2023-03-27T06:23:36.684Z,3.00
2023-03-27T06:26:05.784Z,6.33
2023-03-27T06:28:34.055Z,3.00
2023-03-27T06:31:02.757Z,5.00
2023-03-27T06:33:31.056Z,2.67
2023-03-27T06:36:00.887Z,4.67
2023-03-27T06:38:32.593Z,4.00
2023-03-27T06:41:01.299Z,4.50
2023-03-27T06:43:29.558Z,5.00
2023-03-27T06:45:58.493Z,3.67
2023-03-27T06:48:27.126Z,4.00
2023-03-27T06:50:56.308Z,4.67
2023-03-27T06:53:27.988Z,5.00
2023-03-27T06:55:58.492Z,6.00
2023-03-27T06:58:27.772Z,4.00
2023-03-27T07:00:56.221Z,6.00
2023-03-27T07:03:26.371Z,5.00
2023-03-27T07:05:55.034Z,4.33
2023-03-27T07:08:25.566Z,5.25
2023-03-27T07:13:26.506Z,3.25
2023-03-27T07:15:55.259Z,4.50
2023-03-27T07:18:24.094Z,4.00
2023-03-27T07:20:52.448Z,7.00
2023-03-27T07:23:20.943Z,4.00
2023-03-27T07:25:50.472Z,2.00
2023-03-27T07:28:19.015Z,2.33
2023-03-27T07:30:47.602Z,4.00
2023-03-27T07:33:16.245Z,5.00
2023-03-27T07:35:49.156Z,3.67
2023-03-27T07:38:18.578Z,3.00
2023-03-27T07:40:46.888Z,4.00
2023-03-27T07:43:16.091Z,5.50
2023-03-27T07:45:44.561Z,4.33
2023-03-27T07:48:17.643Z,4.00
2023-03-27T07:50:46.651Z,5.00
2023-03-27T07:53:33.756Z,4.00
2023-03-27T07:56:03.972Z,3.00
2023-03-27T07:58:32.310Z,4.50
2023-03-27T08:01:02.698Z,4.00
2023-03-27T08:03:31.842Z,3.50
2023-03-27T08:06:01.362Z,5.00
2023-03-27T08:08:29.859Z,5.00
2023-03-27T08:10:59.461Z,4.50
2023-03-27T08:13:28.145Z,3.00
2023-03-27T08:16:06.567Z,3.00
2023-03-27T08:18:36.785Z,4.67
2023-03-27T08:21:06.824Z,1.00
2023-03-27T08:23:36.543Z,3.00
2023-03-27T08:26:05.927Z,3.50
2023-03-27T08:28:36.319Z,3.00
2023-03-27T08:31:11.701Z,3.00
2023-03-27T08:33:41.810Z,3.50
2023-03-27T08:36:12.108Z,1.50
2023-03-27T08:38:43.439Z,3.00
2023-03-27T08:41:34.184Z,2.50
2023-03-27T08:44:04.214Z,4.00
2023-03-27T08:46:37.975Z,2.00
2023-03-27T08:49:12.636Z,2.00
2023-03-27T08:51:44.698Z,3.00
2023-03-27T08:54:33.870Z,2.50
2023-03-27T08:57:05.168Z,3.00
2023-03-27T08:59:33.391Z,2.33
2023-03-27T09:02:16.241Z,3.00
2023-03-27T09:05:10.090Z,2.00
2023-03-27T09:08:08.364Z,3.00
2023-03-27T09:10:45.555Z,3.67
2023-03-27T09:13:18.250Z,2.00
2023-03-27T09:16:03.907Z,4.00
2023-03-27T09:18:57.908Z,4.00
2023-03-27T09:21:41.747Z,2.75
2023-03-27T09:24:24.143Z,4.50
2023-03-27T09:27:04.410Z,2.75
2023-03-27T09:29:35.036Z,3.00
2023-03-27T09:32:03.326Z,3.67
2023-03-27T09:34:35.281Z,2.33
2023-03-27T09:37:05.707Z,3.00
2023-03-27T09:39:34.712Z,3.50
2023-03-27T09:42:19.297Z,2.00
2023-03-27T09:44:52.994Z,3.00
2023-03-27T09:47:32.255Z,2.00
2023-03-27T09:50:31.305Z,3.00
2023-03-27T09:53:23.240Z,3.33
2023-03-27T09:56:05.737Z,3.00
2023-03-27T09:58:39.988Z,3.67
2023-03-27T10:01:25.170Z,3.00
2023-03-27T10:03:56.958Z,3.00
2023-03-27T10:06:39.086Z,4.50
2023-03-27T10:09:24.931Z,2.00
2023-03-27T10:12:05.248Z,3.00
2023-03-27T10:14:46.410Z,3.00
2023-03-27T10:17:22.213Z,2.75
2023-03-27T10:19:53.524Z,2.00
2023-03-27T10:22:29.362Z,3.00
2023-03-27T10:25:02.523Z,2.00
2023-03-27T10:27:36.418Z,2.00
2023-03-27T10:30:27.532Z,4.00
2023-03-27T10:32:56.083Z,4.50
2023-03-27T10:35:44.334Z,4.00
2023-03-27T10:38:19.587Z,3.00
2023-03-27T10:40:51.936Z,4.00
2023-03-27T10:43:29.414Z,3.00
2023-03-27T10:46:05.296Z,3.00
2023-03-27T10:49:02.429Z,4.50
2023-03-27T10:51:46.034Z,3.00
2023-03-27T10:54:47.927Z,4.00
2023-03-27T10:57:24.622Z,3.00
2023-03-27T10:59:59.526Z,4.67
2023-03-27T11:02:39.169Z,4.00
2023-03-27T11:05:09.716Z,2.67
2023-03-27T11:07:43.804Z,3.00
2023-03-27T11:10:12.308Z,5.00
2023-03-27T11:12:42.419Z,3.00
2023-03-27T11:15:20.058Z,4.00
2023-03-27T11:17:57.988Z,5.00
2023-03-27T11:20:34.893Z,4.50
2023-03-27T11:23:08.808Z,4.00
2023-03-27T11:25:41.291Z,5.67
2023-03-27T11:28:24.828Z,4.33
2023-03-27T11:31:13.020Z,4.50
2023-03-27T11:33:52.590Z,3.00
2023-03-27T11:36:45.558Z,5.00
2023-03-27T11:39:18.958Z,4.00
2023-03-27T11:42:20.214Z,4.50
2023-03-27T11:44:48.798Z,4.00
2023-03-27T11:47:25.833Z,4.00
2023-03-27T11:50:06.241Z,4.00
2023-03-27T11:53:09.550Z,6.00
2023-03-27T11:55:38.017Z,5.00
2023-03-27T11:58:31.078Z,5.00
2023-03-27T12:01:27.416Z,4.00
2023-03-27T12:04:14.527Z,5.00
2023-03-27T12:07:12.310Z,5.00
2023-03-27T12:09:43.957Z,5.00
2023-03-27T12:12:30.784Z,4.25
2023-03-27T12:15:24.232Z,5.00
2023-03-27T12:17:55.211Z,6.00
2023-03-27T12:20:29.703Z,6.00
2023-03-27T12:23:16.404Z,5.00
2023-03-27T12:26:02.198Z,5.00
2023-03-27T12:28:56.177Z,6.00
2023-03-27T12:31:34.724Z,6.00
2023-03-27T12:34:05.332Z,4.00
2023-03-27T12:36:40.072Z,5.50
2023-03-27T12:39:25.239Z,7.00
2023-03-27T12:41:53.718Z,6.67
2023-03-27T12:44:56.490Z,6.00
2023-03-27T12:47:26.485Z,6.67
2023-03-27T12:50:01.384Z,6.75
2023-03-27T12:52:30.539Z,6.50
2023-03-27T12:55:14.084Z,6.00
2023-03-27T12:57:44.674Z,6.00
2023-03-27T13:00:22.566Z,7.00
2023-03-27T13:03:19.913Z,7.50
2023-03-27T13:06:31.672Z,8.00
2023-03-27T13:09:26.559Z,7.00
2023-03-27T13:12:15.128Z,7.00
2023-03-27T13:15:12.681Z,7.33
2023-03-27T13:18:19.438Z,5.67
2023-03-27T13:21:01.665Z,8.50
2023-03-27T13:24:08.733Z,8.00
2023-03-27T13:26:50.236Z,9.00
2023-03-27T13:29:24.693Z,6.00
2023-03-27T13:32:02.296Z,5.75
2023-03-27T13:34:39.523Z,7.00
2023-03-27T13:37:07.824Z,5.00
2023-03-27T13:39:48.491Z,8.00
2023-03-27T13:42:27.880Z,5.50
2023-03-27T13:45:09.926Z,8.00
2023-03-27T13:48:03.927Z,6.50
2023-03-27T13:50:49.898Z,7.00
2023-03-27T13:54:15.925Z,6.00
2023-03-27T13:59:28.261Z,8.00
2023-03-27T14:02:04.549Z,6.00
2023-03-27T14:05:02.393Z,6.00
2023-03-27T14:07:41.444Z,6.00
2023-03-27T14:10:24.047Z,5.33
2023-03-27T14:13:04.498Z,4.50
2023-03-27T14:15:45.066Z,4.00
2023-03-27T14:18:56.133Z,4.00
2023-03-27T14:21:37.900Z,5.00
2023-03-27T14:24:38.551Z,3.00
2023-03-27T14:27:11.974Z,3.00
2023-03-27T14:29:40.654Z,4.00
2023-03-27T14:32:15.590Z,4.00
2023-03-27T14:35:05.477Z,4.00
2023-03-27T14:37:39.371Z,3.50
2023-03-27T14:40:47.718Z,5.67
2023-03-27T14:43:21.949Z,5.00
2023-03-27T14:45:52.699Z,4.00
2023-03-27T14:48:26.965Z,4.00
2023-03-27T14:51:02.032Z,5.00
2023-03-27T14:53:44.780Z,3.33
2023-03-27T14:56:38.254Z,1.33
2023-03-27T14:59:12.601Z,3.00
2023-03-27T15:01:42.509Z,4.00
2023-03-27T15:04:13.951Z,4.00
2023-03-27T15:06:42.449Z,3.50
2023-03-27T15:09:15.857Z,4.00
2023-03-27T15:11:48.404Z,4.67
2023-03-27T15:14:20.881Z,4.00
2023-03-27T15:16:55.466Z,3.00
2023-03-27T15:19:31.084Z,5.00
2023-03-27T15:22:06.045Z,3.25
2023-03-27T15:24:47.557Z,4.00
2023-03-27T15:27:27.972Z,4.00
2023-03-27T15:30:08.314Z,4.00
2023-03-27T15:32:50.545Z,4.50
2023-03-27T15:35:30.934Z,3.67
2023-03-27T15:38:00.427Z,6.00
2023-03-27T15:40:41.791Z,4.00
2023-03-27T15:43:14.348Z,4.00
2023-03-27T15:46:10.444Z,4.50
2023-03-27T15:48:43.156Z,3.00
2023-03-27T15:51:16.242Z,4.50
2023-03-27T15:53:46.363Z,4.67
2023-03-27T15:56:14.534Z,4.00
2023-03-27T15:58:45.885Z,4.25
2023-03-27T16:01:22.764Z,2.33
2023-03-27T16:03:52.509Z,4.00
2023-03-27T16:06:30.919Z,5.00
2023-03-27T16:08:59.892Z,5.50
2023-03-27T16:11:39.530Z,3.33
2023-03-27T16:14:32.918Z,5.50
2023-03-27T16:17:25.333Z,4.00
2023-03-27T16:20:22.388Z,3.00
2023-03-27T16:22:53.943Z,4.00
2023-03-27T16:25:22.319Z,4.00
2023-03-27T16:27:54.981Z,5.00
2023-03-27T16:30:32.320Z,3.00
2023-03-27T16:33:01.321Z,3.00
2023-03-27T16:35:32.657Z,4.00
2023-03-27T16:38:01.429Z,4.00
2023-03-27T16:40:29.700Z,3.50
2023-03-27T16:42:58.086Z,6.00
2023-03-27T16:45:26.924Z,4.67
2023-03-27T16:47:56.247Z,3.00
2023-03-27T16:50:27.040Z,4.00
2023-03-27T16:52:55.698Z,4.00
2023-03-27T16:55:25.299Z,3.00
2023-03-27T16:57:55.374Z,5.00
2023-03-27T17:00:24.681Z,2.50
2023-03-27T17:02:53.014Z,4.00
2023-03-27T17:05:21.527Z,4.00
2023-03-27T17:07:50.167Z,4.00
2023-03-27T17:10:18.547Z,2.67
2023-03-27T17:12:47.030Z,3.67
2023-03-27T17:15:16.884Z,4.00
2023-03-27T17:17:45.602Z,3.00
2023-03-27T17:20:14.026Z,3.00
2023-03-27T17:22:42.604Z,2.00
2023-03-27T17:25:10.975Z,2.50
2023-03-27T17:27:39.344Z,3.00
2023-03-27T17:30:08.412Z,3.00
2023-03-27T17:32:37.234Z,2.67
2023-03-27T17:35:06.124Z,4.00
2023-03-27T17:37:36.065Z,3.00
2023-03-27T17:40:09.851Z,3.00
2023-03-27T17:42:39.063Z,3.00
2023-03-27T17:45:07.891Z,3.50
2023-03-27T17:47:36.552Z,4.00
2023-03-27T17:50:05.968Z,4.00
2023-03-27T17:52:34.821Z,2.00
2023-03-27T17:55:03.508Z,3.25
2023-03-27T17:57:33.353Z,4.50
2023-03-27T18:00:01.717Z,3.00
2023-03-27T18:02:30.183Z,4.00
2023-03-27T18:04:58.972Z,4.00
2023-03-27T18:07:28.122Z,4.00
2023-03-27T18:09:56.552Z,3.50
2023-03-27T18:12:24.824Z,1.67
2023-03-27T18:14:53.222Z,3.25
2023-03-27T18:17:21.583Z,4.00
2023-03-27T18:19:49.961Z,3.00
2023-03-27T18:22:18.344Z,2.33
2023-03-27T18:24:46.933Z,1.00
2023-03-27T18:27:16.746Z,3.50
2023-03-27T18:29:45.021Z,3.67
2023-03-27T18:32:13.407Z,3.00
2023-03-27T18:34:42.407Z,3.00
2023-03-27T18:37:10.973Z,4.00
2023-03-27T18:39:39.349Z,3.00
2023-03-27T18:42:08.959Z,5.00
2023-03-27T18:44:39.385Z,4.00
2023-03-27T18:47:09.099Z,4.75
2023-03-27T18:49:39.218Z,3.00
2023-03-27T18:52:07.849Z,4.00
2023-03-27T18:54:37.711Z,2.33
2023-03-27T18:57:06.319Z,3.00
2023-03-27T18:59:34.674Z,5.00
2023-03-27T19:02:03.085Z,8.00
2023-03-27T19:04:31.751Z,12.75
2023-03-27T19:07:00.021Z,12.00
2023-03-27T19:09:40.957Z,15.00
2023-03-27T19:12:11.730Z,18.33
2023-03-27T19:14:41.768Z,15.67
2023-03-27T19:17:14.935Z,16.00
2023-03-27T19:19:45.816Z,11.50
2023-03-27T19:22:14.880Z,10.33
2023-03-27T19:24:44.388Z,11.00
2023-03-27T19:27:24.187Z,10.50
2023-03-27T19:29:54.262Z,13.00
2023-03-27T19:32:24.561Z,9.00
2023-03-27T19:34:52.856Z,11.00
2023-03-27T19:37:21.349Z,9.00
2023-03-27T19:39:51.468Z,9.67
2023-03-27T19:42:19.940Z,10.25
2023-03-27T19:44:48.105Z,8.00
2023-03-27T19:47:16.583Z,9.33
2023-03-27T19:49:44.866Z,7.00
2023-03-27T19:52:17.247Z,10.00
2023-03-27T19:54:45.822Z,8.00
2023-03-27T19:57:14.911Z,8.33
2023-03-27T19:59:43.503Z,8.00
2023-03-27T20:02:13.118Z,6.00
2023-03-27T20:04:41.345Z,8.33
2023-03-27T20:07:10.383Z,8.00
2023-03-27T20:09:38.862Z,8.67
2023-03-27T20:12:07.859Z,6.67
2023-03-27T20:14:36.337Z,8.00
2023-03-27T20:17:07.988Z,8.33
2023-03-27T20:19:46.463Z,5.50
2023-03-27T20:22:17.854Z,8.33
2023-03-27T20:24:46.548Z,9.00
2023-03-27T20:27:15.998Z,9.00
2023-03-27T20:29:44.294Z,9.67
2023-03-27T20:32:12.795Z,7.00
2023-03-27T20:34:41.420Z,7.00
2023-03-27T20:37:12.651Z,8.00
2023-03-27T20:39:44.911Z,7.00
2023-03-27T20:42:17.866Z,5.00
2023-03-27T20:44:47.302Z,8.00
2023-03-27T20:47:19.397Z,7.00
2023-03-27T20:49:48.277Z,7.75
2023-03-27T20:52:18.750Z,7.00
2023-03-27T20:54:48.120Z,6.00
2023-03-27T20:57:17.015Z,5.67
2023-03-27T20:59:47.570Z,4.00
2023-03-27T21:02:18.521Z,5.00
2023-03-27T21:04:47.979Z,5.00
2023-03-27T21:07:17.028Z,8.00
2023-03-27T21:09:45.438Z,7.00
2023-03-27T21:12:13.917Z,6.00
2023-03-27T21:14:42.397Z,7.00
2023-03-27T21:17:11.093Z,3.00
2023-03-27T21:19:39.464Z,4.00
2023-03-27T21:22:07.841Z,4.00
2023-03-27T21:24:36.131Z,7.00
2023-03-27T21:27:04.914Z,7.00
2023-03-27T21:29:33.191Z,5.67
2023-03-27T21:32:01.924Z,6.50
2023-03-27T21:34:30.358Z,6.00
2023-03-27T21:36:58.777Z,5.67
2023-03-27T21:39:27.223Z,6.00
2023-03-27T21:41:55.601Z,4.00
2023-03-27T21:44:24.078Z,6.00
2023-03-27T21:46:52.354Z,6.00
2023-03-27T21:49:20.739Z,8.00
2023-03-27T21:51:49.217Z,6.00
2023-03-27T21:54:17.498Z,6.33
2023-03-27T21:56:45.929Z,6.00
2023-03-27T21:59:14.459Z,6.33
2023-03-27T22:01:42.783Z,5.67
2023-03-27T22:04:11.329Z,6.00
2023-03-27T22:06:39.698Z,5.00
2023-03-27T22:09:08.078Z,6.67
2023-03-27T22:11:36.664Z,6.00
2023-03-27T22:14:05.040Z,5.00
2023-03-27T22:16:33.622Z,5.67
2023-03-27T22:19:02.004Z,7.00
2023-03-27T22:21:30.894Z,6.00
2023-03-27T22:24:00.132Z,5.00
2023-03-27T22:26:34.790Z,5.50
2023-03-27T22:29:03.505Z,5.50
2023-03-27T22:31:32.319Z,6.00
2023-03-27T22:34:00.884Z,5.50
2023-03-27T22:36:29.163Z,6.00
2023-03-27T22:38:58.557Z,6.00
2023-03-27T22:41:26.833Z,4.25
2023-03-27T22:43:55.110Z,5.50
2023-03-27T22:46:24.441Z,4.00
2023-03-27T22:48:57.400Z,6.00
2023-03-27T22:51:31.232Z,5.75
2023-03-27T22:53:59.689Z,5.00
2023-03-27T22:56:28.170Z,4.50
2023-03-27T22:58:57.268Z,4.00
2023-03-27T23:01:26.068Z,4.00
2023-03-27T23:03:54.414Z,5.00
2023-03-27T23:06:24.169Z,3.33
2023-03-27T23:08:52.735Z,6.00
2023-03-27T23:11:21.426Z,6.25
2023-03-27T23:13:49.930Z,6.00
2023-03-27T23:16:18.383Z,5.00
2023-03-27T23:18:47.067Z,6.00
2023-03-27T23:21:18.224Z,5.00
2023-03-27T23:23:47.017Z,4.50
2023-03-27T23:26:16.018Z,7.00
2023-03-27T23:28:44.382Z,4.50
2023-03-27T23:31:18.136Z,3.00
2023-03-27T23:33:50.953Z,6.33
2023-03-27T23:36:24.114Z,5.00
2023-03-27T23:38:53.573Z,4.00
2023-03-27T23:41:22.655Z,4.00
2023-03-27T23:43:51.239Z,3.00
2023-03-27T23:46:19.862Z,5.00
2023-03-27T23:48:48.310Z,5.00
2023-03-27T23:51:17.415Z,6.00
2023-03-27T23:53:45.989Z,6.00
2023-03-27T23:56:14.468Z,4.00
2023-03-27T23:58:43.180Z,4.00
